createdAt,value
2023-01-22T00:01:31.946Z,4.50
2023-01-22T00:04:00.278Z,4.23
2023-01-22T00:06:28.738Z,4.13
2023-01-22T00:08:58.322Z,4.00
2023-01-22T00:11:27.292Z,3.97
2023-01-22T00:13:55.753Z,4.10
2023-01-22T00:16:24.243Z,4.00
2023-01-22T00:18:52.668Z,3.63
2023-01-22T00:21:20.807Z,3.50
2023-01-22T00:23:48.974Z,3.90
2023-01-22T00:26:20.857Z,3.90
2023-01-22T00:28:49.770Z,4.03
2023-01-22T00:31:19.085Z,3.73
2023-01-22T00:33:49.197Z,4.30
2023-01-22T00:36:19.897Z,4.07
2023-01-22T00:38:48.676Z,4.00
2023-01-22T00:41:19.526Z,4.00
2023-01-22T00:43:50.096Z,4.10
2023-01-22T00:46:20.051Z,3.70
2023-01-22T00:48:49.665Z,3.75
2023-01-22T00:51:18.430Z,3.60
2023-01-22T00:53:46.852Z,4.17
2023-01-22T00:56:16.083Z,3.93
2023-01-22T00:58:46.893Z,3.80
2023-01-22T01:01:16.214Z,3.97
2023-01-22T01:03:44.499Z,3.90
2023-01-22T01:06:15.675Z,4.23
2023-01-22T01:08:44.798Z,3.87
2023-01-22T01:11:15.208Z,3.87
2023-01-22T01:13:45.837Z,4.00
2023-01-22T01:16:16.887Z,3.83
2023-01-22T01:18:45.858Z,4.07
2023-01-22T01:21:14.354Z,4.10
2023-01-22T01:23:43.804Z,4.23
2023-01-22T01:26:14.605Z,4.00
2023-01-22T01:28:45.515Z,4.13
2023-01-22T01:31:18.661Z,4.17
2023-01-22T01:33:48.030Z,4.30
2023-01-22T01:36:30.680Z,4.23
2023-01-22T01:39:04.428Z,4.10
2023-01-22T01:41:33.162Z,4.67
2023-01-22T01:44:09.239Z,4.30
2023-01-22T01:46:43.049Z,3.57
2023-01-22T01:49:28.303Z,4.00
2023-01-22T01:52:01.315Z,4.10
2023-01-22T01:54:30.332Z,4.27
2023-01-22T01:57:03.328Z,3.60
2023-01-22T01:59:34.226Z,4.07
2023-01-22T02:02:05.411Z,3.67
2023-01-22T02:04:33.780Z,3.60
2023-01-22T02:07:02.013Z,3.63
2023-01-22T02:09:30.870Z,4.07
2023-01-22T02:11:59.112Z,3.83
2023-01-22T02:14:30.767Z,3.80
2023-01-22T02:17:07.325Z,3.30
2023-01-22T02:19:35.554Z,3.90
2023-01-22T02:22:12.289Z,3.40
2023-01-22T02:24:40.731Z,4.00
2023-01-22T02:27:09.435Z,3.17
2023-01-22T02:29:38.279Z,3.93
2023-01-22T02:32:06.868Z,3.27
2023-01-22T02:34:35.351Z,3.10
2023-01-22T02:37:05.965Z,3.67
2023-01-22T02:39:34.636Z,3.07
2023-01-22T02:42:05.978Z,3.40
2023-01-22T02:44:34.556Z,3.40
2023-01-22T02:47:03.138Z,3.20
2023-01-22T02:49:31.476Z,3.10
2023-01-22T02:51:59.764Z,3.23
2023-01-22T02:54:29.688Z,3.17
2023-01-22T02:56:57.996Z,3.80
2023-01-22T02:59:26.860Z,3.20
2023-01-22T03:01:56.665Z,3.10
2023-01-22T03:04:25.945Z,3.47
2023-01-22T03:06:56.085Z,3.33
2023-01-22T03:09:24.480Z,3.47
2023-01-22T03:11:54.110Z,3.47
2023-01-22T03:14:40.024Z,2.90
2023-01-22T03:17:26.224Z,3.20
2023-01-22T03:20:12.151Z,3.23
2023-01-22T03:22:40.348Z,3.13
2023-01-22T03:25:09.069Z,2.90
2023-01-22T03:27:58.972Z,2.83
2023-01-22T03:30:27.657Z,2.58
2023-01-22T03:32:56.175Z,2.93
2023-01-22T03:35:25.215Z,2.90
2023-01-22T03:37:53.720Z,2.63
2023-01-22T03:40:21.933Z,2.57
2023-01-22T03:42:51.415Z,2.80
2023-01-22T03:45:20.035Z,3.00
2023-01-22T03:47:48.382Z,2.60
2023-01-22T03:50:17.509Z,2.53
2023-01-22T03:52:45.913Z,2.60
2023-01-22T03:55:14.626Z,2.67
2023-01-22T03:57:42.815Z,2.47
2023-01-22T04:00:16.900Z,2.60
2023-01-22T04:02:45.700Z,2.70
2023-01-22T04:05:14.252Z,2.10
2023-01-22T04:07:42.735Z,1.93
2023-01-22T04:10:14.273Z,2.40
2023-01-22T04:12:42.819Z,2.13
2023-01-22T04:15:13.769Z,2.42
2023-01-22T04:17:41.942Z,2.30
2023-01-22T04:20:11.750Z,2.07
2023-01-22T04:22:39.915Z,2.30
2023-01-22T04:25:09.243Z,2.17
2023-01-22T04:27:37.962Z,2.40
2023-01-22T04:30:07.990Z,2.40
2023-01-22T04:32:37.656Z,2.00
2023-01-22T04:35:09.506Z,2.43
2023-01-22T04:37:37.760Z,3.00
2023-01-22T04:40:06.834Z,2.60
2023-01-22T04:42:37.327Z,2.20
2023-01-22T04:45:06.114Z,2.27
2023-01-22T04:47:34.298Z,2.40
2023-01-22T04:50:04.639Z,2.57
2023-01-22T04:52:32.728Z,2.10
2023-01-22T04:55:01.447Z,2.53
2023-01-22T04:57:30.159Z,2.27
2023-01-22T04:59:58.813Z,2.30
2023-01-22T05:02:27.014Z,2.23
2023-01-22T05:04:55.240Z,2.40
2023-01-22T05:07:25.249Z,2.60
2023-01-22T05:09:53.915Z,1.90
2023-01-22T05:12:22.100Z,2.20
2023-01-22T05:14:50.310Z,2.20
2023-01-22T05:17:18.805Z,2.10
2023-01-22T05:19:53.110Z,2.30
2023-01-22T05:22:21.269Z,1.90
2023-01-22T05:24:50.837Z,1.80
2023-01-22T05:27:19.050Z,1.90
2023-01-22T05:29:47.680Z,2.00
2023-01-22T05:32:15.853Z,1.60
2023-01-22T05:34:44.088Z,1.70
2023-01-22T05:37:12.368Z,1.57
2023-01-22T05:39:40.505Z,1.90
2023-01-22T05:42:14.545Z,1.23
2023-01-22T05:44:43.064Z,1.33
2023-01-22T05:47:13.265Z,1.30
2023-01-22T05:49:41.665Z,1.07
2023-01-22T05:52:10.804Z,0.80
2023-01-22T05:54:39.978Z,1.10
2023-01-22T05:57:09.612Z,1.00
2023-01-22T05:59:37.845Z,0.83
2023-01-22T06:02:07.360Z,0.90
2023-01-22T06:04:35.901Z,1.20
2023-01-22T06:07:04.533Z,0.90
2023-01-22T06:09:33.413Z,0.87
2023-01-22T06:12:01.575Z,1.10
2023-01-22T06:14:31.058Z,0.85
2023-01-22T06:16:59.141Z,1.00
2023-01-22T06:19:27.293Z,1.00
2023-01-22T06:21:55.542Z,1.02
2023-01-22T06:24:23.623Z,1.10
2023-01-22T06:26:51.751Z,1.10
2023-01-22T06:29:20.880Z,0.97
2023-01-22T06:31:50.402Z,1.30
2023-01-22T06:34:18.684Z,1.10
2023-01-22T06:36:46.911Z,1.40
2023-01-22T06:39:15.330Z,1.30
2023-01-22T06:41:43.480Z,1.33
2023-01-22T06:44:11.762Z,1.15
2023-01-22T06:46:40.244Z,1.27
2023-01-22T06:49:10.975Z,1.40
2023-01-22T06:51:39.521Z,1.45
2023-01-22T06:54:07.870Z,1.30
2023-01-22T06:56:36.024Z,1.07
2023-01-22T06:59:04.585Z,1.07
2023-01-22T07:01:32.840Z,1.00
2023-01-22T07:04:01.300Z,1.17
2023-01-22T07:06:30.893Z,1.33
2023-01-22T07:08:59.418Z,1.08
2023-01-22T07:11:27.855Z,1.10
2023-01-22T07:13:58.232Z,1.20
2023-01-22T07:16:26.474Z,1.10
2023-01-22T07:18:54.697Z,1.10
2023-01-22T07:21:23.072Z,1.17
2023-01-22T07:23:52.648Z,1.20
2023-01-22T07:26:20.834Z,1.10
2023-01-22T07:28:48.954Z,1.10
2023-01-22T07:31:17.275Z,1.20
2023-01-22T07:33:45.484Z,1.40
2023-01-22T07:36:13.767Z,1.30
2023-01-22T07:38:44.674Z,1.43
2023-01-22T07:41:25.445Z,1.00
2023-01-22T07:43:56.984Z,1.07
2023-01-22T07:46:26.209Z,1.20
2023-01-22T07:48:55.004Z,1.30
2023-01-22T07:51:24.057Z,1.30
2023-01-22T07:53:52.369Z,1.30
2023-01-22T07:56:21.882Z,1.30
2023-01-22T07:58:50.169Z,1.40
2023-01-22T08:01:18.851Z,1.33
2023-01-22T08:03:47.000Z,1.45
2023-01-22T08:06:20.692Z,1.23
2023-01-22T08:08:53.249Z,1.42
2023-01-22T08:11:23.151Z,1.57
2023-01-22T08:13:51.302Z,1.60
2023-01-22T08:16:20.513Z,1.27
2023-01-22T08:18:48.871Z,1.50
2023-01-22T08:21:25.194Z,0.90
2023-01-22T08:23:53.491Z,1.17
2023-01-22T08:26:23.165Z,1.20
2023-01-22T08:28:51.724Z,1.40
2023-01-22T08:31:27.876Z,1.40
2023-01-22T08:33:59.388Z,1.20
2023-01-22T08:36:28.025Z,1.30
2023-01-22T08:38:57.210Z,1.38
2023-01-22T08:41:26.736Z,1.23
2023-01-22T08:43:55.547Z,1.50
2023-01-22T08:46:23.924Z,1.47
2023-01-22T08:48:52.143Z,1.73
2023-01-22T08:51:24.930Z,1.57
2023-01-22T08:53:53.178Z,1.63
2023-01-22T08:56:21.324Z,1.70
2023-01-22T08:58:52.394Z,1.30
2023-01-22T09:01:21.495Z,1.87
2023-01-22T09:03:49.825Z,1.60
2023-01-22T09:06:20.959Z,1.58
2023-01-22T09:08:49.285Z,1.43
2023-01-22T09:11:17.662Z,1.70
2023-01-22T09:13:46.482Z,1.23
2023-01-22T09:16:19.487Z,1.40
2023-01-22T09:18:47.794Z,1.40
2023-01-22T09:21:16.272Z,1.42
2023-01-22T09:23:44.608Z,1.42
2023-01-22T09:26:13.522Z,1.85
2023-01-22T09:28:41.821Z,1.80
2023-01-22T09:31:13.421Z,1.80
2023-01-22T09:33:43.516Z,1.77
2023-01-22T09:36:14.240Z,1.63
2023-01-22T09:38:42.997Z,1.67
2023-01-22T09:41:20.564Z,1.70
2023-01-22T09:43:52.883Z,2.10
2023-01-22T09:46:28.930Z,1.75
2023-01-22T09:49:03.646Z,1.90
2023-01-22T09:51:31.782Z,2.28
2023-01-22T09:54:02.568Z,2.20
2023-01-22T09:56:36.621Z,1.90
2023-01-22T09:59:07.377Z,1.60
2023-01-22T10:01:39.632Z,1.83
2023-01-22T10:04:23.013Z,1.63
2023-01-22T10:06:52.687Z,2.00
2023-01-22T10:09:24.125Z,2.43
2023-01-22T10:11:55.834Z,2.10
2023-01-22T10:14:28.950Z,2.10
2023-01-22T10:17:00.777Z,2.15
2023-01-22T10:19:39.362Z,1.85
2023-01-22T10:22:13.527Z,2.00
2023-01-22T10:24:41.651Z,2.42
2023-01-22T10:27:16.489Z,1.95
2023-01-22T10:29:48.379Z,2.40
2023-01-22T10:32:30.242Z,2.45
2023-01-22T10:35:07.050Z,1.75
2023-01-22T10:37:55.631Z,2.17
2023-01-22T10:40:41.698Z,2.30
2023-01-22T10:46:13.149Z,2.33
2023-01-22T10:48:41.785Z,2.42
2023-01-22T10:51:17.113Z,2.13
2023-01-22T10:53:48.476Z,2.40
2023-01-22T10:56:27.778Z,2.55
2023-01-22T10:58:58.355Z,2.33
2023-01-22T11:01:36.044Z,2.42
2023-01-22T11:04:14.685Z,2.58
2023-01-22T11:06:49.321Z,3.00
2023-01-22T11:09:21.749Z,2.90
2023-01-22T11:11:57.490Z,2.63
2023-01-22T11:14:30.932Z,2.85
2023-01-22T11:17:12.745Z,2.22
2023-01-22T11:19:46.370Z,2.38
2023-01-22T11:22:28.753Z,2.00
2023-01-22T11:24:57.250Z,2.55
2023-01-22T11:27:48.501Z,2.70
2023-01-22T11:30:42.713Z,2.38
2023-01-22T11:33:25.206Z,2.50
2023-01-22T11:35:59.455Z,2.88
2023-01-22T11:38:37.622Z,2.40
2023-01-22T11:41:20.975Z,2.90
2023-01-22T11:44:05.535Z,3.08
2023-01-22T11:46:51.361Z,2.92
2023-01-22T11:49:29.853Z,3.50
2023-01-22T11:52:12.712Z,3.55
2023-01-22T11:55:12.470Z,2.88
2023-01-22T11:57:44.533Z,2.53
2023-01-22T12:00:34.573Z,3.13
2023-01-22T12:03:39.283Z,3.20
2023-01-22T12:06:17.734Z,3.35
2023-01-22T12:08:56.729Z,3.90
2023-01-22T12:11:47.806Z,3.85
2023-01-22T12:14:41.446Z,4.43
2023-01-22T12:17:23.920Z,3.88
2023-01-22T12:20:09.684Z,3.92
2023-01-22T12:22:44.241Z,4.13
2023-01-22T12:25:19.136Z,4.55
2023-01-22T12:27:55.278Z,4.15
2023-01-22T12:30:28.510Z,4.18
2023-01-22T12:33:00.550Z,4.15
2023-01-22T12:35:31.640Z,4.57
2023-01-22T12:38:12.118Z,3.40
2023-01-22T12:41:00.382Z,3.67
2023-01-22T12:43:38.625Z,3.30
2023-01-22T12:46:25.451Z,3.33
2023-01-22T12:49:07.028Z,2.78
2023-01-22T12:51:41.060Z,2.67
2023-01-22T12:54:21.074Z,3.50
2023-01-22T12:56:57.709Z,3.90
2023-01-22T12:59:46.103Z,3.30
2023-01-22T13:02:43.251Z,3.10
2023-01-22T13:05:34.887Z,3.95
2023-01-22T13:08:05.166Z,3.40
2023-01-22T13:10:36.111Z,3.53
2023-01-22T13:13:17.941Z,4.72
2023-01-22T13:15:54.601Z,4.80
2023-01-22T13:18:31.616Z,3.40
2023-01-22T13:21:04.449Z,3.60
2023-01-22T13:23:35.218Z,4.07
2023-01-22T13:26:05.135Z,3.45
2023-01-22T13:28:34.598Z,4.10
2023-01-22T13:31:06.407Z,3.70
2023-01-22T13:33:34.710Z,3.75
2023-01-22T13:36:10.936Z,4.00
2023-01-22T13:38:39.356Z,3.67
2023-01-22T13:41:13.045Z,3.65
2023-01-22T13:43:44.566Z,3.90
2023-01-22T13:46:16.023Z,4.13
2023-01-22T13:48:44.703Z,3.47
2023-01-22T13:51:18.556Z,4.00
2023-01-22T13:53:52.599Z,3.97
2023-01-22T13:56:26.615Z,3.58
2023-01-22T13:59:12.212Z,6.38
2023-01-22T14:01:48.390Z,4.30
2023-01-22T14:04:29.655Z,4.53
2023-01-22T14:06:58.280Z,4.80
2023-01-22T14:09:32.231Z,4.22
2023-01-22T14:12:15.036Z,4.10
2023-01-22T14:14:45.195Z,4.10
2023-01-22T14:17:37.112Z,4.35
2023-01-22T14:20:06.380Z,4.82
2023-01-22T14:22:35.821Z,4.95
2023-01-22T14:25:10.962Z,5.00
2023-01-22T14:27:51.790Z,4.88
2023-01-22T14:30:22.635Z,5.13
2023-01-22T14:33:08.551Z,5.60
2023-01-22T14:35:41.573Z,5.38
2023-01-22T14:38:20.261Z,4.93
2023-01-22T14:40:49.806Z,5.80
2023-01-22T14:43:24.902Z,6.03
2023-01-22T14:45:55.204Z,5.60
2023-01-22T14:48:28.898Z,5.43
2023-01-22T14:51:11.977Z,5.53
2023-01-22T14:53:41.695Z,5.45
2023-01-22T14:56:14.561Z,6.88
2023-01-22T14:58:43.430Z,8.00
2023-01-22T15:01:19.237Z,8.63
2023-01-22T15:03:49.775Z,8.48
2023-01-22T15:06:21.607Z,8.45
2023-01-22T15:08:50.259Z,7.87
2023-01-22T15:11:18.716Z,7.53
2023-01-22T15:13:47.569Z,7.55
2023-01-22T15:16:16.085Z,7.97
2023-01-22T15:18:44.819Z,9.03
2023-01-22T15:21:15.706Z,7.70
2023-01-22T15:23:46.153Z,8.43
2023-01-22T15:26:36.817Z,7.77
2023-01-22T15:29:09.631Z,8.27
2023-01-22T15:31:41.375Z,8.30
2023-01-22T15:34:10.064Z,9.00
2023-01-22T15:36:40.803Z,8.90
2023-01-22T15:39:09.522Z,8.23
2023-01-22T15:41:38.678Z,8.73
2023-01-22T15:44:08.516Z,9.02
2023-01-22T15:46:40.237Z,7.90
2023-01-22T15:49:10.484Z,6.90
2023-01-22T15:51:41.106Z,8.10
2023-01-22T15:54:15.439Z,7.63
2023-01-22T15:56:44.498Z,7.45
2023-01-22T15:59:13.658Z,8.40
2023-01-22T16:01:43.628Z,9.13
2023-01-22T16:04:12.413Z,9.37
2023-01-22T16:06:42.341Z,7.83
2023-01-22T16:09:13.309Z,7.63
2023-01-22T16:11:42.690Z,7.97
2023-01-22T16:14:11.332Z,8.27
2023-01-22T16:16:40.175Z,6.50
2023-01-22T16:19:09.650Z,7.00
2023-01-22T16:21:41.222Z,6.77
2023-01-22T16:24:11.700Z,5.90
2023-01-22T16:26:39.945Z,5.67
2023-01-22T16:29:09.748Z,6.43
2023-01-22T16:31:39.405Z,6.20
2023-01-22T16:34:13.657Z,4.60
2023-01-22T16:36:43.595Z,5.10
2023-01-22T16:39:18.365Z,4.67
2023-01-22T16:41:49.450Z,4.20
2023-01-22T16:44:26.351Z,4.30
2023-01-22T16:46:57.742Z,4.63
2023-01-22T16:49:29.409Z,5.07
2023-01-22T16:52:05.074Z,4.70
2023-01-22T16:54:44.566Z,4.87
2023-01-22T16:57:13.800Z,4.65
2023-01-22T16:59:43.456Z,5.47
2023-01-22T17:02:15.453Z,4.87
2023-01-22T17:04:46.055Z,5.35
2023-01-22T17:07:31.537Z,4.90
2023-01-22T17:10:02.434Z,4.47
2023-01-22T17:12:33.111Z,4.35
2023-01-22T17:15:01.337Z,4.33
2023-01-22T17:17:29.801Z,4.75
2023-01-22T17:19:58.593Z,4.40
2023-01-22T17:22:27.439Z,4.97
2023-01-22T17:24:56.446Z,4.80
2023-01-22T17:27:26.088Z,4.90
2023-01-22T17:29:54.757Z,5.40
2023-01-22T17:32:22.992Z,4.90
2023-01-22T17:34:51.283Z,5.25
2023-01-22T17:37:19.680Z,5.20
2023-01-22T17:39:50.732Z,5.07
2023-01-22T17:42:20.926Z,4.67
2023-01-22T17:44:50.765Z,4.82
2023-01-22T17:47:19.016Z,4.93
2023-01-22T17:49:49.012Z,5.00
2023-01-22T17:52:19.357Z,4.78
2023-01-22T17:54:48.311Z,5.40
2023-01-22T17:57:17.022Z,5.60
2023-01-22T17:59:45.556Z,5.00
2023-01-22T18:02:15.135Z,4.70
2023-01-22T18:04:43.290Z,5.17
2023-01-22T18:07:12.619Z,4.70
2023-01-22T18:09:42.285Z,5.18
2023-01-22T18:12:11.597Z,4.63
2023-01-22T18:14:41.079Z,4.63
2023-01-22T18:17:09.230Z,6.20
2023-01-22T18:19:39.151Z,5.83
2023-01-22T18:22:07.731Z,5.88
2023-01-22T18:24:36.545Z,6.55
2023-01-22T18:27:05.985Z,6.88
2023-01-22T18:29:34.122Z,8.00
2023-01-22T18:32:02.331Z,7.00
2023-01-22T18:34:31.049Z,8.45
2023-01-22T18:37:00.712Z,8.90
2023-01-22T18:39:31.298Z,8.73
2023-01-22T18:41:59.601Z,7.67
2023-01-22T18:44:29.171Z,8.13
2023-01-22T18:47:00.000Z,7.83
2023-01-22T18:49:29.055Z,8.63
2023-01-22T18:52:00.767Z,7.77
2023-01-22T18:54:30.912Z,6.67
2023-01-22T18:56:59.642Z,6.83
2023-01-22T18:59:27.844Z,8.30
2023-01-22T19:01:57.438Z,8.07
2023-01-22T19:04:27.912Z,7.27
2023-01-22T19:06:57.164Z,7.53
2023-01-22T19:09:26.960Z,6.97
2023-01-22T19:11:56.956Z,8.10
2023-01-22T19:14:25.227Z,7.90
2023-01-22T19:16:54.177Z,7.33
2023-01-22T19:19:22.808Z,7.67
2023-01-22T19:21:54.252Z,7.70
2023-01-22T19:24:25.034Z,9.37
2023-01-22T19:26:55.014Z,8.15
2023-01-22T19:29:25.600Z,8.30
2023-01-22T19:31:57.095Z,9.10
2023-01-22T19:34:26.041Z,7.53
2023-01-22T19:36:56.604Z,7.60
2023-01-22T19:39:26.529Z,8.67
2023-01-22T19:41:55.402Z,8.47
2023-01-22T19:44:25.271Z,8.80
2023-01-22T19:46:53.765Z,8.80
2023-01-22T19:49:23.088Z,8.07
2023-01-22T19:51:51.927Z,8.10
2023-01-22T19:54:22.684Z,9.00
2023-01-22T19:56:54.222Z,8.43
2023-01-22T19:59:25.210Z,8.90
2023-01-22T20:01:53.620Z,8.70
2023-01-22T20:04:25.036Z,9.10
2023-01-22T20:06:57.491Z,9.48
2023-01-22T20:09:26.151Z,9.70
2023-01-22T20:11:55.910Z,8.90
2023-01-22T20:14:29.647Z,8.52
2023-01-22T20:16:58.179Z,7.33
2023-01-22T20:19:27.582Z,6.07
2023-01-22T20:21:56.329Z,6.32
2023-01-22T20:24:24.736Z,6.70
2023-01-22T20:26:55.402Z,6.47
2023-01-22T20:29:25.302Z,6.45
2023-01-22T20:31:54.120Z,5.75
2023-01-22T20:34:53.081Z,5.55
2023-01-22T20:37:21.405Z,6.40
2023-01-22T20:39:49.573Z,6.33
2023-01-22T20:42:17.980Z,6.22
2023-01-22T20:44:48.325Z,7.43
2023-01-22T20:47:16.605Z,7.33
2023-01-22T20:49:45.584Z,6.97
2023-01-22T20:52:15.780Z,6.43
2023-01-22T20:55:00.444Z,5.47
2023-01-22T20:57:29.933Z,6.20
2023-01-22T20:59:59.562Z,5.53
2023-01-22T21:02:27.854Z,5.93
2023-01-22T21:04:56.625Z,6.13
2023-01-22T21:07:24.808Z,6.25
2023-01-22T21:09:52.965Z,6.38
2023-01-22T21:12:21.543Z,6.23
2023-01-22T21:14:54.689Z,7.05
2023-01-22T21:17:24.808Z,6.50
2023-01-22T21:19:55.219Z,6.85
2023-01-22T21:22:23.384Z,6.88
2023-01-22T21:24:51.667Z,6.43
2023-01-22T21:27:20.039Z,6.65
2023-01-22T21:29:48.217Z,6.18
2023-01-22T21:32:16.943Z,6.65
2023-01-22T21:34:48.148Z,5.83
2023-01-22T21:37:16.413Z,5.97
2023-01-22T21:39:45.079Z,5.85
2023-01-22T21:42:31.367Z,5.85
2023-01-22T21:45:17.218Z,5.95
2023-01-22T21:47:46.265Z,6.07
2023-01-22T21:50:16.181Z,6.88
2023-01-22T21:52:46.043Z,6.03
2023-01-22T21:55:15.677Z,5.60
2023-01-22T21:57:45.851Z,5.88
2023-01-22T22:00:16.541Z,5.43
2023-01-22T22:02:45.165Z,5.15
2023-01-22T22:05:14.804Z,5.25
2023-01-22T22:07:46.027Z,6.15
2023-01-22T22:10:15.226Z,6.07
2023-01-22T22:12:43.852Z,5.75
2023-01-22T22:15:14.800Z,6.03
2023-01-22T22:17:44.744Z,5.90
2023-01-22T22:20:17.993Z,5.53
2023-01-22T22:22:46.946Z,5.95
2023-01-22T22:25:15.503Z,5.35
2023-01-22T22:27:43.855Z,5.60
2023-01-22T22:30:13.567Z,5.35
2023-01-22T22:32:41.711Z,5.50
2023-01-22T22:35:10.426Z,5.28
2023-01-22T22:37:40.352Z,4.97
2023-01-22T22:40:10.975Z,5.40
2023-01-22T22:49:25.399Z,5.10
2023-01-22T22:51:53.686Z,5.53
2023-01-22T22:54:23.279Z,5.82
2023-01-22T22:56:52.887Z,5.72
2023-01-22T22:59:21.417Z,7.32
2023-01-22T23:01:50.321Z,6.13
2023-01-22T23:04:18.574Z,6.93
2023-01-22T23:06:53.351Z,6.43
2023-01-22T23:09:22.395Z,7.20
2023-01-22T23:11:52.010Z,7.40
2023-01-22T23:14:20.449Z,8.03
2023-01-22T23:16:49.339Z,8.13
2023-01-22T23:19:20.347Z,7.57
2023-01-22T23:21:52.710Z,8.02
2023-01-22T23:24:21.133Z,8.30
2023-01-22T23:26:49.584Z,8.17
2023-01-22T23:29:21.870Z,8.20
2023-01-22T23:31:50.366Z,8.97
2023-01-22T23:34:21.925Z,9.10
2023-01-22T23:36:52.115Z,8.90
2023-01-22T23:39:22.051Z,8.33
2023-01-22T23:41:50.983Z,9.20
2023-01-22T23:44:19.124Z,9.50
2023-01-22T23:46:50.416Z,9.07
2023-01-22T23:49:18.716Z,9.70
2023-01-22T23:51:47.029Z,9.25
2023-01-22T23:54:16.612Z,10.80
2023-01-22T23:56:45.322Z,10.25
2023-01-22T23:59:14.007Z,10.53
